Observations for Trim Patrick St
| Time | AQI | Temp °C | Hum % | Pres Pa | CO μg/m³ | H₂S μg/m³ | NO μg/m³ | NO₂ μg/m³ | O₃ μg/m³ | SO₂ μg/m³ | PM1 μg/m³ | PM2.5 μg/m³ | PM10 μg/m³ |
|---|---|---|---|---|---|---|---|---|---|---|---|---|---|
| Sunday 9 August 2026 | |||||||||||||
| 04:57 | 2 | 18.6 | 68 | 79,587 | 0.02 | 0.31 | 1.84 | 15.55 | 41.36 | 0 | 2.86 | 6.72 | 7.39 |
| 04:56 | 2 | 18.6 | 68 | 79,585 | 0.02 | 0 | 2.08 | 10.32 | 43.21 | 0 | 3.71 | 7.45 | 8.19 |
| 04:55 | 2 | 18.6 | 68 | 79,595 | 0.02 | 0.68 | 2.05 | 16.28 | 41.57 | 0 | 2.86 | 6.72 | 7.39 |
| 04:54 | 2 | 18.6 | 68 | 79,536 | 0.02 | 0.26 | 2.16 | 11.69 | 40.81 | 0.15 | 2 | 6 | 6.6 |
| 04:53 | 2 | 18.6 | 68 | 79,487 | 0.01 | 0.65 | 2.12 | 16.3 | 44.42 | 0 | 2.86 | 6.73 | 7.4 |
| 04:51 | 2 | 18.6 | 68 | 79,337 | 0.01 | 0 | 2.19 | 12.36 | 38.13 | 0 | 2.86 | 6 | 6.6 |
| 04:50 | 2 | 18.6 | 68 | 79,325 | 0.01 | 1.33 | 2.18 | 13.15 | 47.61 | 0 | 3.71 | 7.45 | 8.19 |
| 04:49 | 2 | 18.6 | 68 | 79,322 | 0.01 | 1.17 | 2.17 | 16.29 | 51.46 | 0 | 4.57 | 8.17 | 8.99 |
| 04:48 | 2 | 18.6 | 68 | 79,347 | 0.02 | 1.28 | 2.15 | 13.9 | 52.52 | 0 | 2 | 6.73 | 7.4 |
| 04:47 | 2 | 18.6 | 68 | 79,355 | 0.02 | 0 | 2.08 | 12.89 | 39.06 | 0 | 3.71 | 7.45 | 8.2 |
| 04:46 | 2 | 18.6 | 68 | 79,347 | 0.01 | 0 | 1.96 | 12.51 | 38.93 | 0 | 2.86 | 6.73 | 7.4 |
| 04:45 | 2 | 18.6 | 68 | 79,312 | 0 | 1.15 | 2.09 | 14.74 | 51.16 | 0 | 3.71 | 8.91 | 9.8 |
| 04:44 | 2 | 18.5 | 68 | 79,280 | 0.02 | 0.28 | 2.15 | 11.82 | 40.92 | 0 | 2.86 | 6.73 | 7.4 |
| 04:43 | 2 | 18.6 | 68 | 79,261 | 0.01 | 1.36 | 2.19 | 14.54 | 56.78 | 0 | 2.86 | 6.75 | 7.42 |
| 04:42 | 2 | 18.6 | 68 | 79,229 | 0.02 | 0 | 2.15 | 14.75 | 45.96 | 0 | 3.71 | 6.74 | 7.41 |
| 04:41 | 2 | 18.6 | 68 | 79,188 | 0 | 0 | 2.24 | 12.13 | 36.68 | 0 | 3.71 | 7.47 | 8.22 |
| 04:40 | 2 | 18.6 | 68 | 79,172 | 0 | 0.49 | 2.26 | 10.86 | 41.92 | 0 | 3.71 | 7.46 | 8.21 |
| 04:37 | 2 | 18.6 | 68 | 79,123 | 0 | 0.36 | 2.18 | 13.35 | 40.58 | 0 | 3.71 | 7.47 | 8.22 |
| 04:36 | 2 | 18.6 | 67 | 79,095 | 0.01 | 0.44 | 2.31 | 18.41 | 50.71 | 0 | 3.71 | 7.54 | 8.29 |
| 04:35 | 2 | 18.6 | 68 | 79,046 | 0 | 0 | 2.13 | 8.27 | 41.72 | 0.09 | 4.57 | 8.19 | 9.01 |